Time,TemperatureF,DewpointF,PressureIn,WindDirection,WindDirectionDegrees,WindSpeedMPH,WindSpeedGustMPH,Humidity,HourlyPrecipIn,Conditions,Clouds,dailyrainin,SoftwareType,DateUTC
2013-03-16 00:01:00,48.0,43.0,29.99,NNW,334,0.0,0.0,83,0.00,,,0.00,,2013-03-16 07:01:00,
2013-03-16 00:11:00,48.0,43.0,29.99,NNW,334,0.0,0.0,83,0.00,,,0.00,,2013-03-16 07:11:00,
2013-03-16 00:21:00,47.0,42.0,30.00,NNW,334,0.0,0.0,84,0.00,,,0.00,,2013-03-16 07:21:00,
2013-03-16 00:31:00,47.0,42.0,30.00,NNW,334,0.0,0.0,84,0.00,,,0.00,,2013-03-16 07:31:00,
2013-03-16 00:42:00,47.0,42.0,30.00,NNW,334,0.0,0.0,84,0.00,,,0.00,,2013-03-16 07:42:00,
2013-03-16 00:52:00,46.0,42.0,29.99,NNW,334,0.0,0.0,85,0.00,,,0.00,,2013-03-16 07:52:00,
2013-03-16 01:01:00,46.0,42.0,29.98,NNW,334,0.0,0.0,86,0.00,,,0.00,,2013-03-16 08:01:00,
2013-03-16 01:11:00,46.0,42.0,29.98,NNW,334,0.0,0.0,86,0.00,,,0.00,,2013-03-16 08:11:00,
2013-03-16 01:22:00,45.0,41.0,29.99,NNW,334,0.0,0.0,86,0.00,,,0.00,,2013-03-16 08:22:00,
2013-03-16 01:32:00,45.0,41.0,29.99,NNW,334,0.0,0.0,86,0.00,,,0.00,,2013-03-16 08:32:00,
2013-03-16 01:41:00,45.0,41.0,29.99,NNW,334,0.0,0.0,86,0.00,,,0.00,,2013-03-16 08:41:00,
2013-03-16 01:51:00,44.0,40.0,29.99,NNW,334,0.0,0.0,87,0.00,,,0.00,,2013-03-16 08:51:00,
2013-03-16 02:01:00,44.0,40.0,29.99,NNW,334,0.0,0.0,87,0.00,,,0.00,,2013-03-16 09:01:00,
2013-03-16 02:12:00,44.0,40.0,29.99,NNW,334,0.0,0.0,87,0.00,,,0.00,,2013-03-16 09:12:00,
2013-03-16 02:21:00,43.0,40.0,29.99,NNW,334,0.0,0.0,88,0.00,,,0.00,,2013-03-16 09:21:00,
2013-03-16 02:32:00,43.0,39.0,30.00,NNW,334,0.0,0.0,87,0.00,,,0.00,,2013-03-16 09:32:00,
2013-03-16 02:40:00,42.0,39.0,29.99,NNW,334,0.0,0.0,88,0.00,,,0.00,,2013-03-16 09:40:00,
2013-03-16 02:42:00,43.0,39.0,30.00,NNW,334,0.0,0.0,87,0.00,,,0.00,,2013-03-16 09:42:00,
2013-03-16 02:52:00,43.0,39.0,30.00,NNW,334,0.0,0.0,87,0.00,,,0.00,,2013-03-16 09:52:00,
2013-03-16 03:03:00,42.0,39.0,29.99,NNW,334,0.0,0.0,88,0.00,,,0.00,,2013-03-16 10:03:00,
2013-03-16 03:11:00,42.0,39.0,29.99,NNW,334,0.0,0.0,88,0.00,,,0.00,,2013-03-16 10:11:00,
2013-03-16 03:22:00,42.0,39.0,29.99,NNW,334,0.0,0.0,88,0.00,,,0.00,,2013-03-16 10:22:00,
2013-03-16 03:32:00,42.0,39.0,29.99,NNW,334,0.0,0.0,88,0.00,,,0.00,,2013-03-16 10:32:00,
2013-03-16 04:03:00,41.0,38.0,29.98,NNW,334,0.0,0.0,88,0.00,,,0.00,,2013-03-16 11:03:00,
2013-03-16 04:12:00,41.0,38.0,29.98,NNW,334,0.0,0.0,88,0.00,,,0.00,,2013-03-16 11:12:00,
2013-03-16 04:22:00,41.0,38.0,29.98,NNW,334,0.0,0.0,88,0.00,,,0.00,,2013-03-16 11:22:00,
2013-03-16 04:32:00,40.0,37.0,29.98,NNW,334,0.0,0.0,88,0.00,,,0.00,,2013-03-16 11:32:00,
2013-03-16 04:42:00,40.0,37.0,29.98,NNW,334,0.0,0.0,88,0.00,,,0.00,,2013-03-16 11:42:00,
2013-03-16 04:51:00,40.0,37.0,29.99,NNW,334,0.0,0.0,89,0.00,,,0.00,,2013-03-16 11:51:00,
2013-03-16 05:01:00,40.0,37.0,29.98,NNW,334,0.0,0.0,88,0.00,,,0.00,,2013-03-16 12:01:00,
2013-03-16 05:12:00,40.0,37.0,29.98,NNW,334,0.0,0.0,88,0.00,,,0.00,,2013-03-16 12:12:00,
2013-03-16 05:21:00,40.0,37.0,29.98,NNW,334,0.0,0.0,88,0.00,,,0.00,,2013-03-16 12:21:00,
2013-03-16 05:31:00,39.0,36.0,29.97,NNW,334,0.0,0.0,89,0.00,,,0.00,,2013-03-16 12:31:00,
2013-03-16 05:42:00,39.0,36.0,29.97,NNW,334,0.0,0.0,89,0.00,,,0.00,,2013-03-16 12:42:00,
2013-03-16 05:52:00,39.0,36.0,29.97,NNW,334,0.0,0.0,89,0.00,,,0.00,,2013-03-16 12:52:00,
2013-03-16 06:02:00,38.0,35.0,29.97,NNW,333,0.0,0.0,89,0.00,,,0.00,,2013-03-16 13:02:00,
2013-03-16 06:11:00,38.0,35.0,29.97,NNW,333,0.0,0.0,89,0.00,,,0.00,,2013-03-16 13:11:00,
2013-03-16 06:22:00,38.0,35.0,29.97,NNW,333,0.0,0.0,89,0.00,,,0.00,,2013-03-16 13:22:00,
2013-03-16 06:31:00,37.0,34.0,29.98,NNW,334,0.0,0.0,89,0.00,,,0.00,,2013-03-16 13:31:00,
2013-03-16 06:41:00,37.0,34.0,29.98,NNW,334,0.0,0.0,89,0.00,,,0.00,,2013-03-16 13:41:00,
2013-03-16 06:52:00,37.0,34.0,29.99,NNW,334,0.0,0.0,89,0.00,,,0.00,,2013-03-16 13:52:00,
2013-03-16 07:02:00,37.0,34.0,29.99,NNW,334,0.0,0.0,89,0.00,,,0.00,,2013-03-16 14:02:00,
2013-03-16 07:11:00,37.0,34.0,29.99,NNW,334,0.0,0.0,89,0.00,,,0.00,,2013-03-16 14:11:00,
2013-03-16 07:21:00,37.0,34.0,30.00,NNW,334,0.0,0.0,90,0.00,,,0.00,,2013-03-16 14:21:00,
2013-03-16 07:31:00,37.0,34.0,30.01,NNW,334,0.0,0.0,90,0.00,,,0.00,,2013-03-16 14:31:00,
2013-03-16 07:41:00,37.0,34.0,30.01,NNW,334,0.0,0.0,90,0.00,,,0.00,,2013-03-16 14:41:00,
2013-03-16 07:51:00,37.0,34.0,30.00,NNW,334,0.0,0.0,90,0.00,,,0.00,,2013-03-16 14:51:00,
2013-03-16 08:02:00,36.0,33.0,30.01,NNW,334,0.0,0.0,90,0.00,,,0.00,,2013-03-16 15:02:00,
2013-03-16 08:11:00,36.0,33.0,30.01,NNW,334,0.0,0.0,90,0.00,,,0.00,,2013-03-16 15:11:00,
2013-03-16 08:22:00,36.0,33.0,30.01,NNW,334,0.0,0.0,90,0.00,,,0.00,,2013-03-16 15:22:00,
2013-03-16 08:32:00,37.0,35.0,30.02,NNW,334,0.0,0.0,92,0.00,,,0.00,,2013-03-16 15:32:00,
2013-03-16 08:42:00,37.0,35.0,30.02,NNW,334,0.0,0.0,92,0.00,,,0.00,,2013-03-16 15:42:00,
2013-03-16 08:52:00,38.0,36.0,30.02,NNW,334,0.0,0.0,92,0.00,,,0.00,,2013-03-16 15:52:00,
2013-03-16 09:02:00,39.0,37.0,30.01,NNW,334,0.0,0.0,92,0.00,,,0.00,,2013-03-16 16:02:00,
2013-03-16 09:12:00,39.0,37.0,30.01,NNW,334,0.0,0.0,92,0.00,,,0.00,,2013-03-16 16:12:00,
2013-03-16 09:22:00,40.0,38.0,30.02,NNW,334,0.0,0.0,92,0.00,,,0.00,,2013-03-16 16:22:00,
2013-03-16 09:32:00,41.0,39.0,30.02,NNW,334,0.0,0.0,93,0.00,,,0.00,,2013-03-16 16:32:00,
2013-03-16 09:42:00,41.0,39.0,30.02,NNW,334,0.0,0.0,93,0.00,,,0.00,,2013-03-16 16:42:00,
2013-03-16 09:52:00,41.0,39.0,30.02,NNW,334,0.0,0.0,93,0.00,,,0.00,,2013-03-16 16:52:00,
2013-03-16 10:02:00,48.0,47.0,30.02,NNW,334,0.0,0.0,96,0.00,,,0.00,,2013-03-16 17:02:00,
2013-03-16 10:12:00,48.0,47.0,30.02,NNW,334,0.0,0.0,96,0.00,,,0.00,,2013-03-16 17:12:00,
2013-03-16 10:22:00,52.0,51.0,30.03,NNW,334,0.0,0.0,95,0.00,,,0.00,,2013-03-16 17:22:00,
2013-03-16 10:32:00,55.0,51.0,30.03,SSE,152,1.0,5.0,85,0.00,,,0.00,,2013-03-16 17:32:00,
2013-03-16 10:42:00,55.0,51.0,30.03,SSE,152,1.0,5.0,85,0.00,,,0.00,,2013-03-16 17:42:00,
2013-03-16 10:52:00,55.0,51.0,30.03,SSE,152,1.0,5.0,85,0.00,,,0.00,,2013-03-16 17:52:00,
2013-03-16 11:02:00,60.0,50.0,30.04,SSE,155,0.0,2.0,70,0.00,,,0.00,,2013-03-16 18:02:00,
2013-03-16 11:21:00,61.0,49.0,30.03,East,101,0.0,3.0,64,0.00,,,0.00,,2013-03-16 18:21:00,
2013-03-16 11:32:00,63.0,50.0,30.02,East,87,1.0,3.0,62,0.00,,,0.00,,2013-03-16 18:32:00,
2013-03-16 12:01:00,63.0,50.0,30.02,East,87,1.0,3.0,62,0.00,,,0.00,,2013-03-16 19:01:00,
2013-03-16 12:11:00,63.0,50.0,30.02,East,87,1.0,3.0,62,0.00,,,0.00,,2013-03-16 19:11:00,
2013-03-16 12:21:00,64.0,50.0,30.02,South,187,0.0,5.0,60,0.00,,,0.00,,2013-03-16 19:21:00,
2013-03-16 12:33:00,66.0,50.0,30.02,SW,220,0.0,3.0,56,0.00,,,0.00,,2013-03-16 19:33:00,
2013-03-16 12:42:00,66.0,50.0,30.02,SW,220,0.0,3.0,56,0.00,,,0.00,,2013-03-16 19:42:00,
2013-03-16 12:50:00,69.0,51.0,29.99,South,186,0.0,3.0,52,0.00,,,0.00,,2013-03-16 19:50:00,
2013-03-16 12:52:00,67.0,49.0,30.01,SSW,202,0.0,2.0,53,0.00,,,0.00,,2013-03-16 19:52:00,
2013-03-16 13:02:00,69.0,51.0,29.99,South,186,0.0,3.0,52,0.00,,,0.00,,2013-03-16 20:02:00,
2013-03-16 13:11:00,69.0,51.0,29.99,South,186,0.0,3.0,52,0.00,,,0.00,,2013-03-16 20:11:00,
2013-03-16 13:21:00,69.0,51.0,29.99,South,186,0.0,3.0,52,0.00,,,0.00,,2013-03-16 20:21:00,
2013-03-16 13:31:00,69.0,51.0,29.99,South,186,0.0,3.0,52,0.00,,,0.00,,2013-03-16 20:31:00,
2013-03-16 13:41:00,69.0,51.0,29.99,South,186,0.0,3.0,52,0.00,,,0.00,,2013-03-16 20:41:00,
2013-03-16 14:02:00,72.0,49.0,29.98,South,178,0.0,2.0,44,0.00,,,0.00,,2013-03-16 21:02:00,
2013-03-16 14:12:00,72.0,49.0,29.98,South,178,0.0,2.0,44,0.00,,,0.00,,2013-03-16 21:12:00,
2013-03-16 14:22:00,73.0,50.0,29.98,West,265,0.0,2.0,45,0.00,,,0.00,,2013-03-16 21:22:00,
2013-03-16 14:32:00,74.0,48.0,29.98,SE,140,0.0,3.0,40,0.00,,,0.00,,2013-03-16 21:32:00,
2013-03-16 14:42:00,74.0,48.0,29.98,SE,140,0.0,3.0,40,0.00,,,0.00,,2013-03-16 21:42:00,
2013-03-16 14:52:00,74.0,48.0,29.98,SE,140,0.0,3.0,40,0.00,,,0.00,,2013-03-16 21:52:00,
2013-03-16 15:02:00,75.0,49.0,29.97,SE,143,0.0,2.0,40,0.00,,,0.00,,2013-03-16 22:02:00,
2013-03-16 15:12:00,75.0,49.0,29.97,SE,143,0.0,2.0,40,0.00,,,0.00,,2013-03-16 22:12:00,
2013-03-16 15:22:00,75.0,49.0,29.97,SE,143,0.0,2.0,40,0.00,,,0.00,,2013-03-16 22:22:00,
2013-03-16 15:32:00,78.0,38.0,29.96,West,270,2.0,7.0,24,0.00,,,0.00,,2013-03-16 22:32:00,
2013-03-16 15:42:00,78.0,38.0,29.96,West,270,2.0,7.0,24,0.00,,,0.00,,2013-03-16 22:42:00,
2013-03-16 15:52:00,78.0,36.0,29.96,WNW,287,1.0,5.0,22,0.00,,,0.00,,2013-03-16 22:52:00,
2013-03-16 16:02:00,78.0,36.0,29.96,WSW,252,1.0,7.0,22,0.00,,,0.00,,2013-03-16 23:02:00,
2013-03-16 16:12:00,78.0,36.0,29.96,WSW,252,1.0,7.0,22,0.00,,,0.00,,2013-03-16 23:12:00,
2013-03-16 16:22:00,78.0,36.0,29.96,North,358,0.0,12.0,22,0.00,,,0.00,,2013-03-16 23:22:00,
2013-03-16 16:32:00,78.0,34.0,29.96,North,10,1.0,6.0,20,0.00,,,0.00,,2013-03-16 23:32:00,
2013-03-16 16:40:00,76.0,32.0,29.96,North,2,6.0,12.0,20,0.00,,,0.00,,2013-03-16 23:40:00,
2013-03-16 16:42:00,78.0,34.0,29.96,North,10,1.0,6.0,20,0.00,,,0.00,,2013-03-16 23:42:00,
2013-03-16 16:52:00,77.0,35.0,29.96,NNW,347,1.0,12.0,22,0.00,,,0.00,,2013-03-16 23:52:00,
2013-03-16 17:01:00,76.0,32.0,29.96,North,2,6.0,12.0,20,0.00,,,0.00,,2013-03-17 00:01:00,
2013-03-16 17:11:00,76.0,32.0,29.96,North,2,6.0,12.0,20,0.00,,,0.00,,2013-03-17 00:11:00,
2013-03-16 17:22:00,76.0,32.0,29.96,North,2,6.0,12.0,20,0.00,,,0.00,,2013-03-17 00:22:00,
2013-03-16 17:31:00,76.0,32.0,29.96,North,2,6.0,12.0,20,0.00,,,0.00,,2013-03-17 00:31:00,
2013-03-16 17:52:00,74.0,29.0,29.96,NNW,348,5.0,12.0,19,0.00,,,0.00,,2013-03-17 00:52:00,
2013-03-16 18:02:00,72.0,31.0,29.96,NW,325,1.0,16.0,22,0.00,,,0.00,,2013-03-17 01:02:00,
2013-03-16 18:12:00,72.0,31.0,29.96,NW,325,1.0,16.0,22,0.00,,,0.00,,2013-03-17 01:12:00,
2013-03-16 18:21:00,72.0,33.0,29.96,West,265,0.0,3.0,24,0.00,,,0.00,,2013-03-17 01:21:00,
2013-03-16 18:31:00,72.0,34.0,29.96,North,360,0.0,8.0,25,0.00,,,0.00,,2013-03-17 01:31:00,
2013-03-16 18:41:00,72.0,34.0,29.96,North,360,0.0,8.0,25,0.00,,,0.00,,2013-03-17 01:41:00,
2013-03-16 18:52:00,71.0,35.0,29.96,North,352,0.0,6.0,27,0.00,,,0.00,,2013-03-17 01:52:00,
2013-03-16 19:02:00,71.0,35.0,29.96,North,352,0.0,6.0,27,0.00,,,0.00,,2013-03-17 02:02:00,
2013-03-16 19:11:00,71.0,35.0,29.96,North,352,0.0,6.0,27,0.00,,,0.00,,2013-03-17 02:11:00,
2013-03-16 19:21:00,69.0,34.0,29.97,NNW,340,1.0,7.0,27,0.00,,,0.00,,2013-03-17 02:21:00,
2013-03-16 19:32:00,68.0,34.0,29.97,NNW,335,0.0,5.0,28,0.00,,,0.00,,2013-03-17 02:32:00,
2013-03-16 19:43:00,68.0,34.0,29.97,NNW,335,0.0,5.0,28,0.00,,,0.00,,2013-03-17 02:43:00,
2013-03-16 19:52:00,66.0,33.0,29.97,North,352,1.0,4.0,29,0.00,,,0.00,,2013-03-17 02:52:00,
2013-03-16 20:02:00,65.0,34.0,29.98,North,2,0.0,7.0,32,0.00,,,0.00,,2013-03-17 03:02:00,
2013-03-16 20:11:00,65.0,34.0,29.98,North,2,0.0,7.0,32,0.00,,,0.00,,2013-03-17 03:11:00,
2013-03-16 20:21:00,64.0,34.0,29.99,North,7,0.0,3.0,33,0.00,,,0.00,,2013-03-17 03:21:00,
2013-03-16 20:32:00,63.0,35.0,29.99,NNE,16,0.0,3.0,35,0.00,,,0.00,,2013-03-17 03:32:00,
2013-03-16 20:42:00,63.0,35.0,29.99,NNE,16,0.0,3.0,35,0.00,,,0.00,,2013-03-17 03:42:00,
2013-03-16 20:52:00,63.0,36.0,30.00,North,357,0.0,3.0,36,0.00,,,0.00,,2013-03-17 03:52:00,
2013-03-16 21:02:00,61.0,36.0,30.01,North,358,0.0,1.0,40,0.00,,,0.00,,2013-03-17 04:02:00,
2013-03-16 21:12:00,61.0,36.0,30.01,North,358,0.0,1.0,40,0.00,,,0.00,,2013-03-17 04:12:00,
2013-03-16 21:22:00,61.0,37.0,30.01,North,359,0.0,4.0,41,0.00,,,0.00,,2013-03-17 04:22:00,
2013-03-16 21:32:00,60.0,37.0,30.02,North,359,0.0,0.0,43,0.00,,,0.00,,2013-03-17 04:32:00,
2013-03-16 21:42:00,60.0,37.0,30.02,North,359,0.0,0.0,43,0.00,,,0.00,,2013-03-17 04:42:00,
2013-03-16 21:52:00,60.0,37.0,30.02,North,359,0.0,0.0,43,0.00,,,0.00,,2013-03-17 04:52:00,
2013-03-16 22:02:00,58.0,38.0,30.04,North,359,0.0,2.0,48,0.00,,,0.00,,2013-03-17 05:02:00,
2013-03-16 22:11:00,58.0,38.0,30.04,North,359,0.0,2.0,48,0.00,,,0.00,,2013-03-17 05:11:00,
2013-03-16 22:21:00,56.0,39.0,30.05,North,359,0.0,0.0,53,0.00,,,0.00,,2013-03-17 05:21:00,
2013-03-16 22:32:00,55.0,39.0,30.06,North,359,0.0,0.0,54,0.00,,,0.00,,2013-03-17 05:32:00,
2013-03-16 22:42:00,55.0,39.0,30.06,North,359,0.0,0.0,54,0.00,,,0.00,,2013-03-17 05:42:00,
2013-03-16 22:52:00,55.0,39.0,30.06,North,359,0.0,0.0,54,0.00,,,0.00,,2013-03-17 05:52:00,
2013-03-16 23:01:00,54.0,39.0,30.06,North,358,0.0,3.0,57,0.00,,,0.00,,2013-03-17 06:01:00,
2013-03-16 23:12:00,54.0,39.0,30.06,North,358,0.0,3.0,57,0.00,,,0.00,,2013-03-17 06:12:00,
2013-03-16 23:21:00,55.0,39.0,30.06,North,359,0.0,1.0,55,0.00,,,0.00,,2013-03-17 06:21:00,
2013-03-16 23:32:00,55.0,40.0,30.06,North,359,0.0,1.0,56,0.00,,,0.00,,2013-03-17 06:32:00,
2013-03-16 23:42:00,55.0,40.0,30.06,North,359,0.0,1.0,56,0.00,,,0.00,,2013-03-17 06:42:00,
2013-03-16 23:52:00,55.0,40.0,30.06,North,359,0.0,1.0,56,0.00,,,0.00,,2013-03-17 06:52:00,